Time;durP1;ratioP1;P1;durP2;ratioP2;P2;SDS_P1;SDS_P2;PMS_P1;PMS_P2;Temp;Humidity;BMP_temperature;BMP_pressure;BME280_temperature;BME280_humidity;BME280_pressure;Samples;Min_cycle;Max_cycle;Signal;HPM_P1;HPM_P2
2022/10/25 00:01:25;;;;;;;10.82;2.33;;;;;;;;;;5017141;28;20052;-84
2022/10/25 00:03:52;;;;;;;6.60;1.92;;;;;;;;;;5039452;28;20048;-85
2022/10/25 00:06:18;;;;;;;6.25;2.13;;;;;;;;;;5017569;28;20073;-86
2022/10/25 00:08:45;;;;;;;7.05;2.20;;;;;;;;;;5017123;28;20124;-86
2022/10/25 00:11:42;;;;;;;6.32;1.92;;;;;;;;;;5003140;28;20049;-86
2022/10/25 00:14:17;;;;;;;7.90;2.10;;;;;;;;;;5012514;28;20061;-85
2022/10/25 00:16:49;;;;;;;5.05;2.40;;;;;;;;;;5018341;28;20296;-87
2022/10/25 00:19:18;;;;;;;6.15;2.13;;;;;;;;;;5016273;28;20088;-84
2022/10/25 00:22:03;;;;;;;8.93;2.65;;;;;;;;;;5013211;28;20132;-86
2022/10/25 00:24:38;;;;;;;7.22;2.47;;;;;;;;;;5013095;28;20462;-86
2022/10/25 00:27:19;;;;;;;5.75;2.10;;;;;;;;;;5015278;28;20049;-86
2022/10/25 00:29:51;;;;;;;7.38;2.20;;;;;;;;;;5014614;28;20049;-84
2022/10/25 00:32:20;;;;;;;10.73;2.10;;;;;;;;;;5013661;28;20088;-86
2022/10/25 00:34:48;;;;;;;6.97;2.00;;;;;;;;;;5031749;28;20049;-85
2022/10/25 00:37:27;;;;;;;5.07;1.83;;;;;;;;;;5032193;28;20418;-86
2022/10/25 00:40:04;;;;;;;5.68;2.05;;;;;;;;;;5016281;28;20050;-85
2022/10/25 00:42:30;;;;;;;6.25;1.95;;;;;;;;;;5027850;28;20079;-84
2022/10/25 00:45:00;;;;;;;6.50;2.13;;;;;;;;;;5031494;28;20137;-86
2022/10/25 00:47:29;;;;;;;4.63;1.85;;;;;;;;;;5020715;28;20478;-86
2022/10/25 00:50:00;;;;;;;12.25;2.25;;;;;;;;;;5020865;28;20435;-87
2022/10/25 00:52:28;;;;;;;9.52;2.10;;;;;;;;;;5037927;28;20064;-87
2022/10/25 00:54:55;;;;;;;7.88;2.45;;;;;;;;;;5036272;28;20421;-87
2022/10/25 00:57:28;;;;;;;5.47;2.20;;;;;;;;;;5035637;28;20053;-87
2022/10/25 01:00:02;;;;;;;9.27;2.13;;;;;;;;;;5017390;28;20103;-87
2022/10/25 01:02:30;;;;;;;7.10;2.42;;;;;;;;;;5017608;28;20477;-86
2022/10/25 01:05:04;;;;;;;7.97;2.35;;;;;;;;;;5022943;28;20556;-86
2022/10/25 01:07:39;;;;;;;6.32;2.33;;;;;;;;;;5026990;28;20112;-83
2022/10/25 01:10:28;;;;;;;4.70;2.05;;;;;;;;;;5035679;28;20034;-84
2022/10/25 01:13:37;;;;;;;8.80;2.40;;;;;;;;;;5033095;28;20057;-85
2022/10/25 01:16:31;;;;;;;6.97;2.10;;;;;;;;;;5013552;28;20053;-83
2022/10/25 01:19:15;;;;;;;7.30;2.42;;;;;;;;;;5037000;28;20054;-84
2022/10/25 01:21:51;;;;;;;7.53;2.15;;;;;;;;;;5053884;28;20053;-84
2022/10/25 01:24:35;;;;;;;11.23;2.50;;;;;;;;;;5037555;28;20117;-85
2022/10/25 01:27:20;;;;;;;7.35;2.35;;;;;;;;;;5037725;28;20075;-84
2022/10/25 01:30:01;;;;;;;7.60;2.30;;;;;;;;;;5035281;28;20083;-83
2022/10/25 01:32:28;;;;;;;6.68;2.25;;;;;;;;;;5055148;28;20139;-83
2022/10/25 01:35:06;;;;;;;8.30;2.28;;;;;;;;;;5074217;28;20057;-85
2022/10/25 01:38:11;;;;;;;8.93;2.58;;;;;;;;;;5038006;28;20053;-83
2022/10/25 01:40:57;;;;;;;6.35;2.05;;;;;;;;;;4939334;29;20051;-86
2022/10/25 01:43:34;;;;;;;8.43;1.98;;;;;;;;;;4939524;29;20188;-85
2022/10/25 01:46:09;;;;;;;4.88;2.20;;;;;;;;;;5005445;28;20052;-86
2022/10/25 01:48:44;;;;;;;5.97;1.98;;;;;;;;;;5047782;28;20057;-82
2022/10/25 01:51:14;;;;;;;6.35;2.33;;;;;;;;;;5043134;28;20053;-85
2022/10/25 01:53:59;;;;;;;5.22;1.67;;;;;;;;;;5053239;28;20292;-85
2022/10/25 01:56:31;;;;;;;10.45;2.10;;;;;;;;;;5033698;28;20045;-86
2022/10/25 01:59:09;;;;;;;4.80;1.75;;;;;;;;;;5036412;28;20056;-83
2022/10/25 02:01:42;;;;;;;5.88;1.95;;;;;;;;;;5053258;28;20053;-83
2022/10/25 02:04:18;;;;;;;9.02;2.08;;;;;;;;;;5053085;28;20461;-84
2022/10/25 02:07:04;;;;;;;9.57;2.10;;;;;;;;;;5038558;28;20063;-85
2022/10/25 02:09:50;;;;;;;5.63;1.73;;;;;;;;;;5035970;28;20094;-84
2022/10/25 02:12:20;;;;;;;5.60;1.65;;;;;;;;;;5053253;28;20052;-84
2022/10/25 02:15:08;;;;;;;7.75;1.92;;;;;;;;;;5042006;28;20512;-86
2022/10/25 02:18:00;;;;;;;9.10;1.73;;;;;;;;;;5015653;28;20536;-86
2022/10/25 02:20:31;;;;;;;13.23;1.90;;;;;;;;;;5037869;28;20412;-85
2022/10/25 02:23:04;;;;;;;5.45;1.92;;;;;;;;;;5038439;28;20049;-87
2022/10/25 02:25:45;;;;;;;5.70;1.75;;;;;;;;;;5032672;28;20128;-83
2022/10/25 02:28:18;;;;;;;8.98;1.80;;;;;;;;;;5049865;28;20100;-85
2022/10/25 02:30:47;;;;;;;6.22;1.70;;;;;;;;;;5062087;28;20053;-85
2022/10/25 02:33:17;;;;;;;5.75;1.60;;;;;;;;;;5034271;28;20053;-86
2022/10/25 02:36:20;;;;;;;3.75;1.77;;;;;;;;;;5052766;28;20122;-84
2022/10/25 02:38:47;;;;;;;3.25;1.65;;;;;;;;;;5034377;28;20053;-84
2022/10/25 02:41:21;;;;;;;3.45;1.60;;;;;;;;;;5053152;28;20080;-84
2022/10/25 02:43:56;;;;;;;4.93;1.42;;;;;;;;;;5035171;28;20140;-85
2022/10/25 02:46:22;;;;;;;6.88;1.58;;;;;;;;;;5034359;28;20422;-82
2022/10/25 02:48:49;;;;;;;3.50;1.80;;;;;;;;;;5052226;28;20061;-85
2022/10/25 02:51:16;;;;;;;5.65;1.60;;;;;;;;;;5052106;28;20505;-85
2022/10/25 02:53:43;;;;;;;8.45;1.50;;;;;;;;;;5052907;28;20060;-84
2022/10/25 02:56:11;;;;;;;7.63;1.67;;;;;;;;;;5037255;28;20449;-83
2022/10/25 02:58:40;;;;;;;6.75;1.60;;;;;;;;;;5055419;28;20116;-86
2022/10/25 03:01:07;;;;;;;10.13;1.52;;;;;;;;;;5075352;28;20060;-83
2022/10/25 03:03:34;;;;;;;5.28;1.80;;;;;;;;;;5057606;28;20037;-82
2022/10/25 03:06:00;;;;;;;7.20;1.30;;;;;;;;;;5058642;28;20044;-83
2022/10/25 03:08:28;;;;;;;4.75;1.42;;;;;;;;;;5055981;28;20071;-84
2022/10/25 03:10:54;;;;;;;7.20;1.55;;;;;;;;;;5057162;28;20108;-85
2022/10/25 03:13:27;;;;;;;5.55;1.60;;;;;;;;;;5057394;28;20057;-83
2022/10/25 03:15:58;;;;;;;7.57;1.43;;;;;;;;;;5069510;28;20083;-84
2022/10/25 03:18:28;;;;;;;6.82;1.48;;;;;;;;;;5054914;28;20061;-86
2022/10/25 03:21:03;;;;;;;8.35;1.65;;;;;;;;;;5056120;28;20493;-86
2022/10/25 03:23:45;;;;;;;4.88;1.35;;;;;;;;;;5039680;28;20053;-84
2022/10/25 03:26:14;;;;;;;4.85;1.83;;;;;;;;;;5039344;28;20120;-86
2022/10/25 03:28:47;;;;;;;4.88;1.40;;;;;;;;;;5038967;28;20049;-84
2022/10/25 03:31:16;;;;;;;9.60;1.60;;;;;;;;;;5035711;28;20045;-84
2022/10/25 03:33:47;;;;;;;3.63;1.30;;;;;;;;;;5061324;28;20065;-86
2022/10/25 03:36:20;;;;;;;4.07;1.35;;;;;;;;;;5038644;28;20052;-84
2022/10/25 03:39:01;;;;;;;4.07;1.10;;;;;;;;;;5036543;28;20414;-85
2022/10/25 03:41:28;;;;;;;7.20;1.60;;;;;;;;;;5052309;28;20045;-84
2022/10/25 03:44:02;;;;;;;7.60;1.60;;;;;;;;;;5033924;28;20052;-84
2022/10/25 03:46:31;;;;;;;7.38;1.55;;;;;;;;;;5033429;28;20135;-84
2022/10/25 03:48:58;;;;;;;2.92;1.40;;;;;;;;;;5050625;28;20064;-84
2022/10/25 03:51:25;;;;;;;4.13;1.60;;;;;;;;;;5037450;28;20049;-85
2022/10/25 03:54:11;;;;;;;5.18;1.40;;;;;;;;;;5033970;28;20064;-85
2022/10/25 03:56:37;;;;;;;2.90;1.20;;;;;;;;;;5033560;28;20064;-82
2022/10/25 03:59:09;;;;;;;3.58;1.50;;;;;;;;;;5051269;28;20059;-85
2022/10/25 04:01:38;;;;;;;4.60;1.35;;;;;;;;;;5034212;28;20040;-86
2022/10/25 04:04:12;;;;;;;4.57;1.48;;;;;;;;;;5034449;28;20143;-85
2022/10/25 04:06:42;;;;;;;6.40;1.50;;;;;;;;;;5052076;28;20132;-85
2022/10/25 04:09:20;;;;;;;5.45;1.17;;;;;;;;;;5038172;28;20099;-85
2022/10/25 04:11:49;;;;;;;4.65;1.15;;;;;;;;;;5035445;28;20053;-85
2022/10/25 04:14:27;;;;;;;7.25;1.40;;;;;;;;;;5041093;28;20053;-87
2022/10/25 04:16:54;;;;;;;9.05;1.35;;;;;;;;;;5036650;28;20055;-85
2022/10/25 04:19:20;;;;;;;4.47;1.17;;;;;;;;;;5037234;28;20049;-84
2022/10/25 04:21:47;;;;;;;4.95;1.13;;;;;;;;;;5036765;28;20134;-85
2022/10/25 04:24:16;;;;;;;5.90;1.40;;;;;;;;;;5037549;28;20132;-85
2022/10/25 04:26:43;;;;;;;5.60;1.30;;;;;;;;;;5037163;28;20053;-84
2022/10/25 04:29:10;;;;;;;4.90;1.20;;;;;;;;;;5041781;28;20083;-82
2022/10/25 04:31:37;;;;;;;4.05;1.27;;;;;;;;;;5059101;28;20073;-85
2022/10/25 04:34:04;;;;;;;5.50;1.60;;;;;;;;;;5036710;28;20052;-82
2022/10/25 04:36:30;;;;;;;11.95;1.42;;;;;;;;;;5038109;28;20049;-84
2022/10/25 04:39:00;;;;;;;8.05;1.48;;;;;;;;;;5036682;28;20048;-85
2022/10/25 04:41:52;;;;;;;4.47;1.40;;;;;;;;;;5039309;28;20049;-84
2022/10/25 04:44:47;;;;;;;7.20;1.48;;;;;;;;;;4978599;28;20090;-84
2022/10/25 04:47:34;;;;;;;5.32;1.10;;;;;;;;;;4992411;28;20093;-86
2022/10/25 04:50:00;;;;;;;6.82;1.10;;;;;;;;;;4992633;28;20178;-85
2022/10/25 04:52:51;;;;;;;4.13;1.02;;;;;;;;;;4970102;28;20047;-84
2022/10/25 04:55:30;;;;;;;2.83;1.00;;;;;;;;;;4981746;28;20034;-85
2022/10/25 04:57:59;;;;;;;10.68;1.55;;;;;;;;;;4999435;28;20050;-86
2022/10/25 05:00:39;;;;;;;4.00;1.17;;;;;;;;;;4995308;28;20367;-86
2022/10/25 05:03:33;;;;;;;2.28;1.08;;;;;;;;;;4979311;28;20181;-86
2022/10/25 05:09:48;;;;;;;4.65;1.10;;;;;;;;;;4995355;28;20045;-84
2022/10/25 05:12:39;;;;;;;4.82;1.08;;;;;;;;;;4980315;28;20521;-82
2022/10/25 05:15:14;;;;;;;6.07;1.20;;;;;;;;;;4993465;28;20058;-84
2022/10/25 05:17:40;;;;;;;8.82;1.45;;;;;;;;;;4994787;28;20057;-85
2022/10/25 05:20:39;;;;;;;6.30;1.27;;;;;;;;;;4991473;28;20478;-83
2022/10/25 05:26:09;;;;;;;4.72;0.90;;;;;;;;;;5064932;28;20304;-84
2022/10/25 05:29:09;;;;;;;4.57;0.93;;;;;;;;;;5044472;28;20115;-84
2022/10/25 05:31:49;;;;;;;6.00;1.45;;;;;;;;;;5036614;28;20072;-85
2022/10/25 05:34:24;;;;;;;5.68;1.10;;;;;;;;;;5036523;28;20076;-84
2022/10/25 05:36:54;;;;;;;4.65;1.10;;;;;;;;;;5056090;28;20141;-85
2022/10/25 05:39:38;;;;;;;5.45;1.00;;;;;;;;;;5040625;28;20049;-83
2022/10/25 05:42:22;;;;;;;4.13;1.27;;;;;;;;;;5042592;28;20127;-84
2022/10/25 05:45:14;;;;;;;5.85;1.13;;;;;;;;;;5045115;28;20424;-86
2022/10/25 05:47:50;;;;;;;7.60;1.17;;;;;;;;;;5040762;28;20053;-86
2022/10/25 05:50:25;;;;;;;6.90;1.20;;;;;;;;;;5063348;28;20049;-85
2022/10/25 05:52:57;;;;;;;4.28;1.23;;;;;;;;;;5035152;28;20110;-85
2022/10/25 05:55:59;;;;;;;7.75;1.35;;;;;;;;;;5052870;28;20053;-86
2022/10/25 05:58:27;;;;;;;6.88;1.33;;;;;;;;;;4999570;28;20049;-86
2022/10/25 06:00:57;;;;;;;4.40;1.15;;;;;;;;;;5057457;28;20068;-86
2022/10/25 06:06:58;;;;;;;;;;;;;;;;;;5058988;28;20114;-87
2022/10/25 06:10:03;;;;;;;5.95;1.73;;;;;;;;;;5037309;28;19921;-87
2022/10/25 06:13:27;;;;;;;;;;;;;;;;;;;;;
2022/10/25 06:16:01;;;;;;;4.40;1.02;;;;;;;;;;5060609;28;20398;-87
2022/10/25 06:18:37;;;;;;;6.82;1.20;;;;;;;;;;5055669;28;20048;-86
2022/10/25 06:21:43;;;;;;;3.28;1.00;;;;;;;;;;5040766;28;20120;-83
2022/10/25 06:24:33;;;;;;;7.30;1.15;;;;;;;;;;5039957;28;20053;-87
2022/10/25 06:27:12;;;;;;;8.18;1.30;;;;;;;;;;5055995;28;20052;-87
2022/10/25 06:30:01;;;;;;;6.80;1.10;;;;;;;;;;5023299;28;20153;-85
2022/10/25 06:33:26;;;;;;;5.63;1.00;;;;;;;;;;5033482;28;20055;-86
2022/10/25 06:36:26;;;;;;;2.88;1.10;;;;;;;;;;5027874;28;20070;-85
2022/10/25 06:39:22;;;;;;;11.38;1.15;;;;;;;;;;5035824;28;20099;-84
2022/10/25 06:42:28;;;;;;;6.13;1.08;;;;;;;;;;4995195;28;20050;-86
2022/10/25 06:45:22;;;;;;;4.20;1.40;;;;;;;;;;4994565;28;20061;-85
2022/10/25 06:48:04;;;;;;;6.22;1.15;;;;;;;;;;4993973;28;20143;-86
2022/10/25 06:50:41;;;;;;;7.35;1.20;;;;;;;;;;4995578;28;20058;-84
2022/10/25 06:53:22;;;;;;;3.85;0.98;;;;;;;;;;4995741;28;20052;-85
2022/10/25 06:56:09;;;;;;;5.72;1.10;;;;;;;;;;4989658;28;20200;-85
2022/10/25 06:59:11;;;;;;;4.22;1.30;;;;;;;;;;4994537;28;20058;-87
2022/10/25 07:02:26;;;;;;;4.95;1.17;;;;;;;;;;4977363;28;20518;-86
2022/10/25 07:05:12;;;;;;;9.73;1.10;;;;;;;;;;4995218;28;20529;-85
2022/10/25 07:07:56;;;;;;;7.78;1.60;;;;;;;;;;4999765;28;20046;-87
2022/10/25 07:10:25;;;;;;;4.22;1.02;;;;;;;;;;5037802;28;20053;-86
2022/10/25 07:13:01;;;;;;;2.97;1.20;;;;;;;;;;5057424;28;20075;-83
2022/10/25 07:15:36;;;;;;;5.78;1.10;;;;;;;;;;5055874;28;20519;-84
2022/10/25 07:18:07;;;;;;;4.35;0.90;;;;;;;;;;5043434;28;20506;-86
2022/10/25 07:20:34;;;;;;;4.05;1.20;;;;;;;;;;5056493;28;20049;-86
2022/10/25 07:23:00;;;;;;;8.48;1.15;;;;;;;;;;5038078;28;20137;-86
2022/10/25 07:25:33;;;;;;;5.43;1.10;;;;;;;;;;5052353;28;20053;-85
2022/10/25 07:28:15;;;;;;;9.23;1.00;;;;;;;;;;5053287;28;20856;-86
2022/10/25 07:30:45;;;;;;;4.85;0.95;;;;;;;;;;5053392;28;20075;-85
2022/10/25 07:33:13;;;;;;;4.25;0.88;;;;;;;;;;5035751;28;20049;-84
2022/10/25 07:35:39;;;;;;;3.88;0.93;;;;;;;;;;5037719;28;20056;-85
2022/10/25 07:38:26;;;;;;;4.72;1.20;;;;;;;;;;5057526;28;20063;-85
2022/10/25 07:40:59;;;;;;;5.80;1.20;;;;;;;;;;5055017;28;20367;-85
2022/10/25 07:43:26;;;;;;;2.63;0.88;;;;;;;;;;5052986;28;20040;-82
2022/10/25 07:45:53;;;;;;;5.72;0.90;;;;;;;;;;5065482;28;20059;-84
2022/10/25 07:48:19;;;;;;;3.72;1.17;;;;;;;;;;5073030;28;20102;-83
2022/10/25 07:50:46;;;;;;;5.20;1.08;;;;;;;;;;5058826;28;20086;-83
2022/10/25 07:53:12;;;;;;;3.75;0.90;;;;;;;;;;5074002;28;20259;-88
2022/10/25 07:55:39;;;;;;;8.18;1.10;;;;;;;;;;5052752;28;20057;-83
2022/10/25 07:58:06;;;;;;;6.32;1.00;;;;;;;;;;5056224;28;20029;-83
2022/10/25 08:00:34;;;;;;;2.35;0.85;;;;;;;;;;5060278;28;20045;-85
2022/10/25 08:03:00;;;;;;;7.13;1.23;;;;;;;;;;5065981;28;20053;-84
2022/10/25 08:05:27;;;;;;;5.35;0.70;;;;;;;;;;5051886;28;20045;-85
2022/10/25 08:07:56;;;;;;;5.38;1.10;;;;;;;;;;5056825;28;20420;-86
2022/10/25 08:10:34;;;;;;;4.93;1.10;;;;;;;;;;5043257;28;20048;-81
2022/10/25 08:13:01;;;;;;;6.60;1.00;;;;;;;;;;5057718;28;20048;-85
2022/10/25 08:15:35;;;;;;;1.80;0.60;;;;;;;;;;5044918;28;20067;-87
2022/10/25 08:18:06;;;;;;;5.85;1.48;;;;;;;;;;5042224;28;20269;-86
2022/10/25 08:20:43;;;;;;;5.85;0.93;;;;;;;;;;5060481;28;20075;-85
2022/10/25 08:23:33;;;;;;;5.10;0.93;;;;;;;;;;5045667;28;20068;-84
2022/10/25 08:26:00;;;;;;;11.13;0.90;;;;;;;;;;5060326;28;20053;-85
2022/10/25 08:28:29;;;;;;;8.18;1.08;;;;;;;;;;5042600;28;20045;-88
2022/10/25 08:30:57;;;;;;;5.40;0.90;;;;;;;;;;5050440;28;20061;-86
2022/10/25 08:33:24;;;;;;;6.72;0.90;;;;;;;;;;5042428;28;20061;-86
2022/10/25 08:35:53;;;;;;;4.20;0.88;;;;;;;;;;5041634;28;20398;-84
2022/10/25 08:38:19;;;;;;;4.88;1.00;;;;;;;;;;5059530;28;20055;-84
2022/10/25 08:41:08;;;;;;;4.35;0.85;;;;;;;;;;5042568;28;20053;-86
2022/10/25 08:43:56;;;;;;;5.05;0.90;;;;;;;;;;5038546;28;20055;-85
2022/10/25 08:46:45;;;;;;;7.15;1.00;;;;;;;;;;5043738;28;20049;-83
2022/10/25 08:49:25;;;;;;;5.57;0.90;;;;;;;;;;5060693;28;20057;-84
2022/10/25 08:52:08;;;;;;;5.80;0.80;;;;;;;;;;5067341;28;20469;-85
2022/10/25 08:54:39;;;;;;;3.92;0.70;;;;;;;;;;5062876;28;20053;-84
2022/10/25 08:57:25;;;;;;;3.50;0.95;;;;;;;;;;5071307;28;20057;-81
2022/10/25 08:59:53;;;;;;;6.50;0.90;;;;;;;;;;5075898;28;20057;-88
2022/10/25 09:02:35;;;;;;;5.35;1.23;;;;;;;;;;5045016;28;20059;-85
2022/10/25 09:05:03;;;;;;;4.70;1.10;;;;;;;;;;5064978;28;20041;-86
2022/10/25 09:08:01;;;;;;;6.22;0.82;;;;;;;;;;5045087;28;20421;-87
2022/10/25 09:10:33;;;;;;;4.03;0.90;;;;;;;;;;5051610;28;20140;-87
2022/10/25 09:13:45;;;;;;;6.43;0.98;;;;;;;;;;5042897;28;20049;-87
2022/10/25 09:16:15;;;;;;;4.07;1.05;;;;;;;;;;5040915;28;20525;-86
2022/10/25 09:18:51;;;;;;;9.98;1.20;;;;;;;;;;5040466;28;20413;-88
2022/10/25 09:21:40;;;;;;;5.03;0.80;;;;;;;;;;5057097;28;20073;-88
2022/10/25 09:24:35;;;;;;;5.35;1.25;;;;;;;;;;5056265;28;20060;-85
2022/10/25 09:27:13;;;;;;;3.67;0.80;;;;;;;;;;5036869;28;20049;-86
2022/10/25 09:29:46;;;;;;;4.13;1.00;;;;;;;;;;5056118;28;20045;-84
2022/10/25 09:32:26;;;;;;;5.53;1.02;;;;;;;;;;5055465;28;20057;-84
2022/10/25 09:34:58;;;;;;;4.20;0.70;;;;;;;;;;5055109;28;20051;-83
2022/10/25 09:37:28;;;;;;;5.72;0.93;;;;;;;;;;5058731;28;20108;-85
2022/10/25 09:40:15;;;;;;;4.97;1.00;;;;;;;;;;5061260;28;20061;-84
2022/10/25 09:43:01;;;;;;;7.20;1.10;;;;;;;;;;5040672;28;20052;-86
2022/10/25 09:45:31;;;;;;;4.05;1.05;;;;;;;;;;5038505;28;20045;-86
2022/10/25 09:48:24;;;;;;;5.30;0.98;;;;;;;;;;5038206;28;20049;-86
2022/10/25 09:51:22;;;;;;;3.20;0.80;;;;;;;;;;5038963;28;20048;-85
2022/10/25 09:53:53;;;;;;;5.40;0.88;;;;;;;;;;5056683;28;20056;-84
2022/10/25 09:56:22;;;;;;;5.65;0.90;;;;;;;;;;5038446;28;20077;-87
2022/10/25 09:58:51;;;;;;;3.67;0.68;;;;;;;;;;5056487;28;20056;-83
2022/10/25 10:01:21;;;;;;;11.55;1.35;;;;;;;;;;5038244;28;20087;-85
2022/10/25 10:03:55;;;;;;;4.72;1.10;;;;;;;;;;5037399;28;20091;-86
2022/10/25 10:06:26;;;;;;;4.07;0.60;;;;;;;;;;5038058;28;20110;-83
2022/10/25 10:09:03;;;;;;;7.07;0.88;;;;;;;;;;5036819;28;20130;-89
2022/10/25 10:11:41;;;;;;;3.28;0.90;;;;;;;;;;5039012;28;20052;-86
2022/10/25 10:14:11;;;;;;;8.50;1.08;;;;;;;;;;5037369;28;20045;-86
2022/10/25 10:16:46;;;;;;;7.38;0.93;;;;;;;;;;5060281;28;20053;-89
2022/10/25 10:19:13;;;;;;;;;;;;;;;;;;5055858;28;20131;-86
2022/10/25 10:21:39;;;;;;;;;;;;;;;;;;5056971;28;19927;-86
2022/10/25 10:24:14;;;;;;;3.90;0.80;;;;;;;;;;5058474;28;19936;-85
2022/10/25 10:26:50;;;;;;;6.13;1.02;;;;;;;;;;5063472;28;20474;-89
2022/10/25 10:29:30;;;;;;;8.65;1.10;;;;;;;;;;5056604;28;20075;-85
2022/10/25 10:32:05;;;;;;;3.97;0.80;;;;;;;;;;5035911;28;20160;-83
2022/10/25 10:34:40;;;;;;;5.75;0.80;;;;;;;;;;5036734;28;20108;-87
2022/10/25 10:37:13;;;;;;;6.32;0.98;;;;;;;;;;5055268;28;20057;-83
2022/10/25 10:39:50;;;;;;;5.15;0.95;;;;;;;;;;5037043;28;20053;-86
2022/10/25 10:42:28;;;;;;;4.95;1.05;;;;;;;;;;5039023;28;20508;-85
2022/10/25 10:45:01;;;;;;;3.88;0.80;;;;;;;;;;5036377;28;20095;-84
2022/10/25 10:47:47;;;;;;;2.97;0.90;;;;;;;;;;5039700;28;20196;-84
2022/10/25 10:50:23;;;;;;;6.60;1.00;;;;;;;;;;5036167;28;20063;-86
2022/10/25 10:53:10;;;;;;;4.65;0.80;;;;;;;;;;5038262;28;20113;-84
2022/10/25 10:55:42;;;;;;;3.97;0.90;;;;;;;;;;5053647;28;20044;-84
2022/10/25 10:58:13;;;;;;;3.42;0.70;;;;;;;;;;5058785;28;20079;-85
2022/10/25 11:00:46;;;;;;;4.70;0.95;;;;;;;;;;5036787;28;20091;-85
2022/10/25 11:03:33;;;;;;;3.55;1.10;;;;;;;;;;5054340;28;20059;-88
2022/10/25 11:06:04;;;;;;;2.40;0.70;;;;;;;;;;5054972;28;20049;-87
2022/10/25 11:08:31;;;;;;;2.75;0.80;;;;;;;;;;5037475;28;20049;-86
2022/10/25 11:11:14;;;;;;;8.02;1.00;;;;;;;;;;5037579;28;20045;-85
2022/10/25 11:13:50;;;;;;;2.78;0.90;;;;;;;;;;5037010;28;20051;-84
2022/10/25 11:16:31;;;;;;;5.40;1.02;;;;;;;;;;5038827;28;20072;-85
2022/10/25 11:19:40;;;;;;;3.72;0.80;;;;;;;;;;5055348;28;20080;-88
2022/10/25 11:22:19;;;;;;;8.60;0.93;;;;;;;;;;5057931;28;20053;-86
2022/10/25 11:25:02;;;;;;;4.47;0.73;;;;;;;;;;5052743;28;20056;-84
2022/10/25 11:27:47;;;;;;;4.63;1.00;;;;;;;;;;5034410;28;20057;-85
2022/10/25 11:30:23;;;;;;;3.42;0.70;;;;;;;;;;5052503;28;20079;-87
2022/10/25 11:33:08;;;;;;;2.35;0.55;;;;;;;;;;5052481;28;20048;-86
2022/10/25 11:35:51;;;;;;;5.63;1.00;;;;;;;;;;5033555;28;20394;-85
2022/10/25 11:38:42;;;;;;;4.50;0.70;;;;;;;;;;5052528;28;20195;-86
2022/10/25 11:41:28;;;;;;;3.42;0.73;;;;;;;;;;5043996;28;20052;-84
2022/10/25 11:44:06;;;;;;;3.20;0.77;;;;;;;;;;5041595;28;20164;-86
2022/10/25 11:47:01;;;;;;;3.42;0.80;;;;;;;;;;5054341;28;20208;-88
2022/10/25 11:49:30;;;;;;;5.18;0.82;;;;;;;;;;5038346;28;20051;-87
2022/10/25 11:52:14;;;;;;;5.20;0.90;;;;;;;;;;5066613;28;20124;-88
2022/10/25 11:55:03;;;;;;;4.78;1.20;;;;;;;;;;5069072;28;20109;-87
2022/10/25 11:57:32;;;;;;;4.53;0.90;;;;;;;;;;5049613;28;20052;-83
2022/10/25 12:00:03;;;;;;;7.15;1.00;;;;;;;;;;5068999;28;20088;-84
2022/10/25 12:02:43;;;;;;;4.13;0.63;;;;;;;;;;5069765;28;20041;-83
2022/10/25 12:05:13;;;;;;;4.03;0.70;;;;;;;;;;5050661;28;20099;-85
2022/10/25 12:07:44;;;;;;;2.40;0.73;;;;;;;;;;5062289;28;20048;-84
2022/10/25 12:10:29;;;;;;;4.25;1.27;;;;;;;;;;5052734;28;20041;-87
2022/10/25 12:12:58;;;;;;;4.28;1.05;;;;;;;;;;5035445;28;20203;-84
2022/10/25 12:15:35;;;;;;;3.55;0.80;;;;;;;;;;5035702;28;20063;-85
2022/10/25 12:18:02;;;;;;;4.15;0.80;;;;;;;;;;5042569;28;20045;-85
2022/10/25 12:20:32;;;;;;;4.68;0.82;;;;;;;;;;5046977;28;20044;-89
2022/10/25 12:23:09;;;;;;;3.70;0.70;;;;;;;;;;5036376;28;20463;-88
2022/10/25 12:25:38;;;;;;;2.08;1.00;;;;;;;;;;5035542;28;20132;-88
2022/10/25 12:28:15;;;;;;;11.73;1.02;;;;;;;;;;5053786;28;20064;-87
2022/10/25 12:30:43;;;;;;;5.38;1.00;;;;;;;;;;5054132;28;20069;-87
2022/10/25 12:33:09;;;;;;;2.67;0.75;;;;;;;;;;5035837;28;20049;-87
2022/10/25 12:35:40;;;;;;;2.67;0.80;;;;;;;;;;5054121;28;20049;-88
2022/10/25 12:38:11;;;;;;;6.00;1.00;;;;;;;;;;5056428;28;20052;-88
2022/10/25 12:40:43;;;;;;;2.60;0.80;;;;;;;;;;5057802;28;20128;-86
2022/10/25 12:43:38;;;;;;;4.82;0.98;;;;;;;;;;5058689;28;20041;-86
2022/10/25 12:46:10;;;;;;;2.55;0.77;;;;;;;;;;4986872;28;20142;-87
2022/10/25 12:48:39;;;;;;;3.88;0.70;;;;;;;;;;5040902;28;20044;-85
2022/10/25 12:51:18;;;;;;;3.92;0.88;;;;;;;;;;5059247;28;20312;-86
2022/10/25 12:53:44;;;;;;;2.72;1.00;;;;;;;;;;5054253;28;20123;-84
2022/10/25 12:56:29;;;;;;;3.08;0.80;;;;;;;;;;5055900;28;20049;-88
2022/10/25 12:59:02;;;;;;;2.83;1.00;;;;;;;;;;5070187;28;20041;-82
2022/10/25 13:01:31;;;;;;;2.90;0.80;;;;;;;;;;5068841;28;20053;-86
2022/10/25 13:03:57;;;;;;;3.25;0.85;;;;;;;;;;5068848;28;20041;-87
2022/10/25 13:06:32;;;;;;;4.57;0.80;;;;;;;;;;5052822;28;20147;-84
2022/10/25 13:09:00;;;;;;;2.22;0.77;;;;;;;;;;5043333;28;20093;-84
2022/10/25 13:11:35;;;;;;;3.13;0.75;;;;;;;;;;5057021;28;20124;-85
2022/10/25 13:14:02;;;;;;;2.35;0.60;;;;;;;;;;5070278;28;20053;-85
2022/10/25 13:16:39;;;;;;;6.00;0.88;;;;;;;;;;5043111;28;20425;-85
2022/10/25 13:19:26;;;;;;;2.45;0.90;;;;;;;;;;5037097;28;20131;-87
2022/10/25 13:22:29;;;;;;;4.22;0.70;;;;;;;;;;5041066;28;20057;-85
2022/10/25 13:25:11;;;;;;;3.63;0.70;;;;;;;;;;5055524;28;20111;-87
2022/10/25 13:28:05;;;;;;;3.78;0.60;;;;;;;;;;5057169;28;20056;-88
2022/10/25 13:30:34;;;;;;;2.42;0.60;;;;;;;;;;5040517;28;20045;-86
2022/10/25 13:33:23;;;;;;;4.15;0.73;;;;;;;;;;5058906;28;20059;-84
2022/10/25 13:35:52;;;;;;;2.85;0.90;;;;;;;;;;5041866;28;20044;-87
2022/10/25 13:38:23;;;;;;;4.55;1.20;;;;;;;;;;5040487;28;20112;-84
2022/10/25 13:41:11;;;;;;;3.80;0.40;;;;;;;;;;5055013;28;20068;-83
2022/10/25 13:43:56;;;;;;;5.65;0.80;;;;;;;;;;5038169;28;20083;-86
2022/10/25 13:46:26;;;;;;;3.88;0.70;;;;;;;;;;5056664;28;20053;-86
2022/10/25 13:48:53;;;;;;;2.60;1.00;;;;;;;;;;5037088;28;20076;-85
2022/10/25 13:51:20;;;;;;;4.20;1.02;;;;;;;;;;5037524;28;20049;-85
2022/10/25 13:54:00;;;;;;;5.47;1.00;;;;;;;;;;5040020;28;20045;-84
2022/10/25 13:56:34;;;;;;;2.47;0.70;;;;;;;;;;5054585;28;20052;-84
2022/10/25 13:59:01;;;;;;;2.20;0.60;;;;;;;;;;5044991;28;20133;-84
2022/10/25 14:01:29;;;;;;;2.38;0.80;;;;;;;;;;5054352;28;20060;-85
2022/10/25 14:04:05;;;;;;;4.88;1.10;;;;;;;;;;5053898;28;20450;-84
2022/10/25 14:06:31;;;;;;;4.28;0.80;;;;;;;;;;5035851;28;20045;-86
2022/10/25 14:08:58;;;;;;;4.00;0.98;;;;;;;;;;5036481;28;20456;-84
2022/10/25 14:11:30;;;;;;;2.67;0.70;;;;;;;;;;5036875;28;20049;-84
2022/10/25 14:14:00;;;;;;;4.60;0.70;;;;;;;;;;5036308;28;20064;-84
2022/10/25 14:16:34;;;;;;;4.63;0.93;;;;;;;;;;5054730;28;20053;-84
2022/10/25 14:19:11;;;;;;;3.30;0.70;;;;;;;;;;5043578;28;20052;-87
2022/10/25 14:21:37;;;;;;;5.35;1.00;;;;;;;;;;5039128;28;20140;-87
2022/10/25 14:24:09;;;;;;;3.83;0.88;;;;;;;;;;5055668;28;20486;-85
2022/10/25 14:26:36;;;;;;;3.50;0.77;;;;;;;;;;5053311;28;20493;-85
2022/10/25 14:29:12;;;;;;;2.70;0.68;;;;;;;;;;5035658;28;20045;-86
2022/10/25 14:31:44;;;;;;;5.45;0.80;;;;;;;;;;5035541;28;20148;-85
2022/10/25 14:34:17;;;;;;;1.67;0.60;;;;;;;;;;5063763;28;20056;-85
2022/10/25 14:36:46;;;;;;;5.28;0.80;;;;;;;;;;5064038;28;20056;-85
2022/10/25 14:39:36;;;;;;;3.45;0.80;;;;;;;;;;5037742;28;20049;-84
2022/10/25 14:42:03;;;;;;;6.50;1.05;;;;;;;;;;5037475;28;20049;-86
2022/10/25 14:44:31;;;;;;;5.32;0.75;;;;;;;;;;5055628;28;20059;-85
2022/10/25 14:46:58;;;;;;;2.22;0.70;;;;;;;;;;5041742;28;20064;-86
2022/10/25 14:49:31;;;;;;;3.88;1.10;;;;;;;;;;5038782;28;20201;-86
2022/10/25 14:51:59;;;;;;;5.15;0.80;;;;;;;;;;5054664;28;20526;-85
2022/10/25 14:54:30;;;;;;;5.18;1.10;;;;;;;;;;5054525;28;20056;-87
2022/10/25 14:56:57;;;;;;;9.20;1.20;;;;;;;;;;5036148;28;20056;-86
2022/10/25 14:59:26;;;;;;;14.15;3.00;;;;;;;;;;5052775;28;20049;-87
2022/10/25 15:01:58;;;;;;;2.95;0.80;;;;;;;;;;5054205;28;20057;-87
2022/10/25 15:04:26;;;;;;;4.07;0.80;;;;;;;;;;5035673;28;20115;-87
2022/10/25 15:06:52;;;;;;;2.60;0.82;;;;;;;;;;5036064;28;20049;-87
2022/10/25 15:09:20;;;;;;;3.90;0.80;;;;;;;;;;5036219;28;20395;-88
2022/10/25 15:12:16;;;;;;;3.22;0.90;;;;;;;;;;5039078;28;20052;-87
2022/10/25 15:14:47;;;;;;;5.03;0.80;;;;;;;;;;5035780;28;20063;-87
2022/10/25 15:17:19;;;;;;;1.98;0.70;;;;;;;;;;5052756;28;20139;-87
2022/10/25 15:20:00;;;;;;;1.92;0.90;;;;;;;;;;5034158;28;20080;-87
2022/10/25 15:22:28;;;;;;;3.78;0.90;;;;;;;;;;5035498;28;20057;-87
2022/10/25 15:24:57;;;;;;;4.60;0.80;;;;;;;;;;5035686;28;20041;-87
2022/10/25 15:27:30;;;;;;;4.32;1.10;;;;;;;;;;5036284;28;20044;-87
2022/10/25 15:30:00;;;;;;;5.85;1.23;;;;;;;;;;5037257;28;20069;-88
2022/10/25 15:32:27;;;;;;;11.35;1.40;;;;;;;;;;5054395;28;20045;-86
2022/10/25 15:34:59;;;;;;;9.85;1.60;;;;;;;;;;5037069;28;20053;-88
2022/10/25 15:37:38;;;;;;;7.90;2.67;;;;;;;;;;5039316;28;20057;-86
2022/10/25 15:40:14;;;;;;;7.15;1.50;;;;;;;;;;5056433;28;20037;-86
2022/10/25 15:42:46;;;;;;;6.95;1.65;;;;;;;;;;5045553;28;20052;-88
2022/10/25 15:45:14;;;;;;;7.95;1.13;;;;;;;;;;5055506;28;20140;-88
2022/10/25 15:47:46;;;;;;;7.88;1.60;;;;;;;;;;5039107;28;20079;-88